Mount Pleasant, TX (75455)

5:50 AM CST on February 11, 2016 (GMT -0600)
Union Hill Road at CR 4640 | | Change Station
CLOSE
Current Station
Personal Weather Station
Location: Mount Pleasant, TX
Elevation: 425 ft
Nearby Weather Stations

Elev 425 ft 33.09 °N, 94.90 °W | Updated 5 seconds ago

Clear
Clear
55.7 °F
Feels Like 55.7 °F
N
4.0
Wind Variable Wind from SW
Gusts 6.0 mph

Today
High -- | Low -- °F
--% Chance of Precip.
Yesterday
High -- | Low -- °F
Precip. -- in
Pressure 30.05 in
Visibility 10.0 miles
Clouds Clear
Dew Point 37 °F
Humidity 50%
Rainfall 0.00 in
Snow Depth Not available.
7:07 AM 6:00 PM
Waxing Crescent, 11% visible
METAR KOSA 111135Z AUTO 23011G14KT 10SM CLR 14/01 A3005 RMK AO1 T01390006
Pressure 30.05 in
Visibility 10.0 miles
Clouds Clear
Dew Point 37 °F
Humidity 50%
Rainfall 0.00 in
Snow Depth Not available.
7:07 AM 6:00 PM
Waxing Crescent, 11% visible
METAR KOSA 111135Z AUTO 23011G14KT 10SM CLR 14/01 A3005 RMK AO1 T01390006

10-Day Weather Forecast

Almanac

Astronomy

Feb. 11, 2016 Rise Set
Actual Time
Civil Twilight
Nautical Twilight
Astronomical Twilight
Moon
Length of Visible Light
Length of Day
Tomorrow will be .
, % of the Moon is Illuminated

Today's Extremes

State Highs State Lows

Community

WunderPhotos

Upload Photos

1,892,030 photos uploaded!

WunderBlog® & News

Nearby

Air Quality

  Air Quality AQ Index Pollutant
Not available.

Snow Depth

Station Depth Elevation

Earthquake Activity

City Distance Mag. Time & Date
Minimum magnitude displayed is 2.5.

Coastal Water Temperatures

Place Temperature

Stations

Nearby Weather Stations

Station Location Temp. Windchill Dew Point Humidity Wind Precip. Elev Updated Type
                   

Watches & Warnings

There are currently no watches in effect.